createdAt,value
2022-10-04T00:01:51.077Z,5.80
2022-10-04T00:04:25.048Z,5.60
2022-10-04T00:06:57.319Z,5.23
2022-10-04T00:09:30.950Z,5.73
2022-10-04T00:11:59.948Z,5.37
2022-10-04T00:14:31.920Z,5.30
2022-10-04T00:17:01.450Z,5.33
2022-10-04T00:19:43.407Z,6.10
2022-10-04T00:22:23.720Z,5.70
2022-10-04T00:25:22.630Z,6.00
2022-10-04T00:28:18.656Z,6.00
2022-10-04T00:30:47.213Z,5.50
2022-10-04T00:33:35.991Z,5.57
2022-10-04T00:36:44.687Z,5.03
2022-10-04T00:39:26.366Z,5.10
2022-10-04T00:42:03.984Z,5.47
2022-10-04T00:44:38.554Z,5.70
2022-10-04T00:47:21.855Z,5.53
2022-10-04T00:49:56.093Z,5.23
2022-10-04T00:52:30.401Z,4.80
2022-10-04T00:55:04.130Z,5.27
2022-10-04T00:57:36.625Z,5.23
2022-10-04T01:00:09.280Z,5.07
2022-10-04T01:02:40.958Z,4.73
2022-10-04T01:05:11.944Z,5.20
2022-10-04T01:07:44.824Z,5.67
2022-10-04T01:10:22.552Z,4.73
2022-10-04T01:12:55.950Z,4.90
2022-10-04T01:15:32.279Z,5.07
2022-10-04T01:18:13.235Z,5.20
2022-10-04T01:20:50.628Z,5.20
2022-10-04T01:23:34.661Z,5.40
2022-10-04T01:26:06.282Z,5.20
2022-10-04T01:28:36.012Z,4.80
2022-10-04T01:31:04.713Z,4.93
2022-10-04T01:33:33.224Z,4.67
2022-10-04T01:36:01.680Z,6.00
2022-10-04T01:38:30.355Z,4.60
2022-10-04T01:41:04.961Z,4.20
2022-10-04T01:43:37.167Z,5.27
2022-10-04T01:46:10.465Z,5.33
2022-10-04T01:48:43.811Z,4.67
2022-10-04T01:51:19.477Z,4.50
2022-10-04T01:53:51.825Z,4.57
2022-10-04T01:56:26.020Z,4.43
2022-10-04T01:58:57.662Z,4.03
2022-10-04T02:01:31.709Z,4.40
2022-10-04T02:04:05.501Z,4.27
2022-10-04T02:06:38.889Z,4.37
2022-10-04T02:09:10.682Z,5.20
2022-10-04T02:11:42.790Z,4.53
2022-10-04T02:14:16.547Z,4.20
2022-10-04T02:16:45.732Z,4.50
2022-10-04T02:19:14.509Z,4.43
2022-10-04T02:21:44.197Z,4.30
2022-10-04T02:24:13.334Z,3.80
2022-10-04T02:26:43.696Z,4.13
2022-10-04T02:29:12.344Z,4.27
2022-10-04T02:31:58.949Z,4.00
2022-10-04T02:34:29.377Z,4.23
2022-10-04T02:36:58.823Z,3.83
2022-10-04T02:39:28.883Z,4.00
2022-10-04T02:42:05.023Z,4.27
2022-10-04T02:44:39.046Z,4.10
2022-10-04T02:47:14.153Z,4.17
2022-10-04T02:49:48.274Z,4.07
2022-10-04T02:52:23.889Z,4.00
2022-10-04T02:54:59.115Z,4.23
2022-10-04T02:57:29.506Z,4.30
2022-10-04T03:00:11.811Z,3.87
2022-10-04T03:02:41.885Z,4.10
2022-10-04T03:05:14.575Z,4.87
2022-10-04T03:07:43.192Z,3.77
2022-10-04T03:10:15.326Z,3.97
2022-10-04T03:12:45.578Z,3.57
2022-10-04T03:15:15.362Z,3.60
2022-10-04T03:17:45.438Z,3.63
2022-10-04T03:20:21.327Z,3.77
2022-10-04T03:22:55.784Z,3.63
2022-10-04T03:25:32.576Z,3.90
2022-10-04T03:28:03.962Z,3.50
2022-10-04T03:30:33.766Z,3.47
2022-10-04T03:33:02.564Z,3.40
2022-10-04T03:35:34.922Z,3.20
2022-10-04T03:38:09.164Z,3.80
2022-10-04T03:40:40.037Z,3.17
2022-10-04T03:43:14.049Z,3.40
2022-10-04T03:45:43.853Z,3.50
2022-10-04T03:48:19.616Z,3.23
2022-10-04T03:50:52.653Z,3.53
2022-10-04T03:53:37.709Z,3.23
2022-10-04T03:56:12.942Z,3.30
2022-10-04T03:58:44.004Z,3.20
2022-10-04T04:01:26.258Z,3.20
2022-10-04T04:04:02.317Z,3.20
2022-10-04T04:06:36.279Z,3.23
2022-10-04T04:09:07.513Z,3.13
2022-10-04T04:11:36.049Z,3.17
2022-10-04T04:14:10.243Z,3.50
2022-10-04T04:16:39.007Z,3.53
2022-10-04T04:19:16.019Z,3.10
2022-10-04T04:21:45.004Z,3.40
2022-10-04T04:24:25.505Z,3.50
2022-10-04T04:26:58.708Z,3.37
2022-10-04T04:29:35.394Z,3.80
2022-10-04T04:32:07.485Z,3.50
2022-10-04T04:34:37.314Z,4.63
2022-10-04T04:37:07.183Z,3.70
2022-10-04T04:39:35.812Z,3.73
2022-10-04T04:42:23.195Z,3.53
2022-10-04T04:47:59.457Z,3.90
2022-10-04T04:50:34.753Z,4.10
2022-10-04T04:53:08.265Z,4.43
2022-10-04T04:56:02.446Z,4.70
2022-10-04T04:58:37.517Z,4.67
2022-10-04T05:01:23.832Z,3.47
2022-10-04T05:04:09.279Z,4.50
2022-10-04T05:06:55.534Z,3.90
2022-10-04T05:09:28.370Z,4.00
2022-10-04T05:12:01.936Z,3.87
2022-10-04T05:17:47.231Z,4.20
2022-10-04T05:23:24.262Z,4.20
2022-10-04T05:25:54.120Z,4.70
2022-10-04T05:28:24.389Z,4.43
2022-10-04T05:31:10.302Z,4.30
2022-10-04T05:33:48.188Z,3.87
2022-10-04T05:36:50.553Z,4.63
2022-10-04T05:45:24.245Z,3.57
2022-10-04T05:47:55.555Z,3.43
2022-10-04T05:50:33.778Z,4.40
2022-10-04T05:53:22.504Z,4.23
2022-10-04T05:56:00.826Z,4.13
2022-10-04T06:01:42.379Z,4.30
2022-10-04T06:04:36.741Z,4.90
2022-10-04T06:27:19.691Z,4.20
2022-10-04T06:29:52.660Z,4.27
2022-10-04T06:32:45.113Z,4.47
2022-10-04T06:35:27.681Z,4.60
2022-10-04T06:38:10.143Z,5.17
2022-10-04T07:09:14.770Z,4.80
2022-10-04T07:21:09.158Z,4.40
2022-10-04T07:23:49.546Z,5.13
2022-10-04T07:32:13.863Z,5.37
2022-10-04T07:34:48.434Z,4.73
2022-10-04T07:37:19.762Z,4.90
2022-10-04T07:43:00.141Z,4.13
2022-10-04T07:45:34.055Z,4.80
2022-10-04T07:48:14.385Z,4.47
2022-10-04T07:50:50.811Z,4.57
2022-10-04T07:53:29.826Z,4.60
2022-10-04T07:56:03.615Z,5.20
2022-10-04T07:58:48.127Z,5.10
2022-10-04T08:01:29.106Z,4.77
2022-10-04T08:04:11.391Z,4.07
2022-10-04T08:06:56.703Z,4.37
2022-10-04T08:19:50.580Z,4.50
2022-10-04T08:22:34.778Z,4.50
2022-10-04T08:44:35.687Z,4.07
2022-10-04T08:56:21.818Z,4.63
2022-10-04T09:06:18.231Z,3.97
2022-10-04T09:09:45.719Z,3.80
2022-10-04T09:15:48.738Z,3.53
2022-10-04T09:18:38.537Z,3.37
2022-10-04T09:21:27.293Z,3.40
2022-10-04T09:24:40.558Z,3.20
2022-10-04T09:27:54.648Z,2.77
2022-10-04T09:33:39.957Z,4.73
2022-10-04T09:36:32.586Z,3.00
2022-10-04T09:39:35.117Z,3.03
2022-10-04T09:42:59.010Z,3.17
2022-10-04T09:45:41.321Z,3.00
2022-10-04T09:48:44.064Z,3.70
2022-10-04T09:51:53.504Z,2.70
2022-10-04T09:58:09.925Z,3.27
2022-10-04T10:00:56.454Z,3.30
2022-10-04T10:04:12.011Z,3.30
2022-10-04T10:07:25.403Z,3.30
2022-10-04T10:10:23.625Z,3.60
2022-10-04T10:16:36.885Z,3.27
2022-10-04T10:43:58.687Z,2.80
2022-10-04T10:49:55.309Z,2.93
2022-10-04T10:53:20.337Z,2.53
2022-10-04T10:56:21.559Z,3.00
2022-10-04T10:59:30.899Z,3.43
2022-10-04T11:12:55.202Z,2.70
2022-10-04T11:18:43.097Z,2.53
2022-10-04T11:21:48.923Z,2.70
2022-10-04T11:27:57.207Z,2.80
2022-10-04T11:37:25.856Z,2.70
2022-10-04T12:00:25.842Z,2.67
2022-10-04T12:03:15.733Z,2.73
2022-10-04T12:12:40.688Z,2.40
2022-10-04T12:15:38.901Z,2.70
2022-10-04T12:18:46.453Z,3.07
2022-10-04T12:21:46.047Z,2.80
2022-10-04T12:24:57.939Z,2.67
2022-10-04T12:28:02.809Z,2.60
2022-10-04T12:30:47.439Z,3.43
2022-10-04T13:02:57.693Z,6.00
2022-10-04T13:09:04.340Z,2.13
2022-10-04T13:21:12.435Z,2.23
2022-10-04T13:24:02.906Z,2.10
2022-10-04T13:26:45.542Z,2.27
2022-10-04T13:29:25.783Z,2.23
2022-10-04T13:32:01.212Z,2.10
2022-10-04T13:34:42.246Z,2.17
2022-10-04T13:37:53.626Z,2.37
2022-10-04T13:40:45.765Z,2.20
2022-10-04T13:52:28.616Z,2.33
2022-10-04T13:55:33.545Z,2.17
2022-10-04T13:58:15.691Z,2.03
2022-10-04T14:01:20.935Z,1.90
2022-10-04T14:04:04.169Z,2.00
2022-10-04T14:07:15.654Z,1.60
2022-10-04T14:10:19.986Z,1.80
2022-10-04T14:13:14.669Z,1.70
2022-10-04T14:16:40.569Z,2.10
2022-10-04T14:26:01.387Z,1.97
2022-10-04T14:32:36.779Z,2.47
2022-10-04T14:35:15.853Z,2.10
2022-10-04T14:38:35.910Z,2.40
2022-10-04T14:41:46.891Z,2.90
2022-10-04T14:45:02.378Z,2.30
2022-10-04T14:51:15.301Z,2.13
2022-10-04T14:53:54.860Z,1.90
2022-10-04T14:56:46.008Z,1.90
2022-10-04T14:59:35.190Z,2.00
2022-10-04T15:06:15.614Z,2.00
2022-10-04T16:41:25.424Z,3.00
2022-10-04T16:47:49.602Z,3.13
2022-10-04T16:57:11.023Z,3.53
2022-10-04T17:00:19.998Z,3.27
2022-10-04T17:05:42.145Z,4.10
2022-10-04T17:08:33.174Z,3.27
2022-10-04T17:14:10.647Z,3.53
2022-10-04T17:58:07.221Z,4.83
2022-10-04T18:21:50.891Z,5.27
2022-10-04T18:24:25.505Z,5.30
2022-10-04T18:27:02.286Z,4.73
2022-10-04T18:30:28.102Z,4.83
2022-10-04T18:33:01.343Z,5.10
2022-10-04T18:35:33.073Z,6.00
2022-10-04T18:41:20.595Z,5.63
2022-10-04T18:43:52.957Z,6.17
2022-10-04T18:46:26.084Z,6.30
2022-10-04T18:48:57.508Z,5.90
2022-10-04T18:51:30.088Z,5.90
2022-10-04T18:54:16.358Z,5.80
2022-10-04T18:56:55.938Z,5.63
2022-10-04T19:03:00.367Z,6.17
2022-10-04T19:05:41.987Z,5.93
2022-10-04T19:50:24.147Z,5.53
2022-10-04T19:52:54.867Z,5.90
2022-10-04T19:55:29.496Z,5.73
2022-10-04T19:58:14.792Z,6.27
2022-10-04T20:15:43.326Z,5.97
2022-10-04T20:18:54.206Z,7.20
2022-10-04T20:24:55.835Z,6.00
2022-10-04T20:28:47.041Z,6.80
2022-10-04T20:32:19.041Z,7.17
2022-10-04T20:34:54.439Z,5.73
2022-10-04T21:21:11.321Z,5.00
2022-10-04T21:26:52.699Z,4.67
2022-10-04T21:29:26.464Z,5.73
2022-10-04T21:34:53.630Z,5.77
2022-10-04T21:37:28.463Z,5.10
2022-10-04T21:40:00.677Z,5.00
2022-10-04T21:42:54.738Z,5.70
2022-10-04T21:45:30.155Z,5.10
2022-10-04T21:51:09.539Z,5.10
2022-10-04T21:53:56.879Z,5.63
2022-10-04T21:56:29.869Z,5.87
2022-10-04T22:02:39.353Z,4.83
2022-10-04T22:08:05.573Z,5.50
2022-10-04T22:10:40.193Z,5.23
2022-10-04T22:16:33.699Z,4.87
2022-10-04T22:25:30.465Z,4.90
2022-10-04T22:30:50.461Z,5.40
2022-10-04T22:33:33.456Z,4.93
2022-10-04T23:24:22.640Z,4.63
